.
WxDataArchive / Data Records for 2008-01-15
2008-01-14 January 2008 2008-01-16

Data Records for Tuesday, 15 January 2008

Time	Temp	Chill	HIndex	Humid	Dewpt	 Wind 	HiWind	WindDir	Rain 	Barom 
-----	----	-----	------	-----	-----	------	------	-------	-----	----- 
00:00	21.1	21.1	21.1	84	17.0	3	11	270	0.00	29.994 
00:05	21.0	21.0	21.0	84	16.9	3	12	270	0.00	29.991 
00:10	21.0	21.0	21.0	84	16.9	3	9	270	0.00	29.990 
00:15	21.0	21.0	21.0	84	16.9	3	10	270	0.00	29.987 
00:20	21.0	21.0	21.0	84	16.9	3	8	270	0.00	29.983 
00:25	21.0	15.4	21.0	84	16.9	4	9	270	0.00	29.982 
00:30	21.0	21.0	21.0	83	16.7	2	12	270	0.00	29.980 
00:35	21.0	21.0	21.0	83	16.7	3	12	270	0.00	29.979 
00:40	21.0	21.0	21.0	83	16.7	3	6	270	0.00	29.974 
00:45	21.0	21.0	21.0	83	16.7	3	8	270	0.00	29.973 
00:50	21.0	21.0	21.0	84	16.9	3	9	270	0.00	29.972 
00:55	21.1	21.1	21.1	83	16.8	3	9	270	0.00	29.971 
01:00	21.1	21.1	21.1	83	16.8	3	9	270	0.00	29.972 
01:05	21.1	21.1	21.1	83	16.8	2	7	270	0.00	29.970 
01:10	21.1	21.1	21.1	83	16.8	3	6	270	0.00	29.968 
01:15	21.1	21.1	21.1	84	17.0	2	4	270	0.00	29.969 
01:20	21.1	21.1	21.1	84	17.0	2	5	270	0.00	29.969 
01:25	21.1	21.1	21.1	85	17.3	2	10	270	0.00	29.968 
01:30	21.3	21.3	21.3	85	17.5	2	7	248	0.00	29.966 
01:35	21.3	21.3	21.3	84	17.2	3	7	270	0.00	29.966 
01:40	21.4	21.4	21.4	84	17.3	2	7	270	0.00	29.966 
01:45	21.6	21.6	21.6	84	17.5	2	6	248	0.00	29.967 
01:50	21.6	21.6	21.6	84	17.5	3	7	270	0.00	29.967 
01:55	21.6	21.6	21.6	84	17.5	3	7	270	0.00	29.967 
02:00	21.8	21.8	21.8	84	17.7	3	6	270	0.00	29.972 
02:05	21.8	21.8	21.8	84	17.7	3	7	270	0.00	29.972 
02:10	21.9	21.9	21.9	84	17.8	3	9	270	0.00	29.974 
02:15	21.9	21.9	21.9	84	17.8	2	6	270	0.00	29.973 
02:20	22.1	22.1	22.1	81	17.2	2	6	270	0.00	29.973 
02:25	22.1	22.1	22.1	84	18.0	2	5	248	0.00	29.973 
02:30	22.2	22.2	22.2	84	18.1	2	4	270	0.00	29.975 
02:35	22.2	22.2	22.2	84	18.1	2	6	248	0.00	29.977 
02:40	22.4	22.4	22.4	84	18.3	2	4	270	0.00	29.978 
02:45	22.4	22.4	22.4	84	18.3	2	5	248	0.00	29.978 
02:50	22.5	22.5	22.5	84	18.4	1	3	292	0.00	29.978 
02:55	22.5	22.5	22.5	84	18.4	1	4	270	0.00	29.979 
03:00	22.5	22.5	22.5	84	18.4	2	6	270	0.00	29.979 
03:05	22.7	22.7	22.7	84	18.6	2	4	248	0.00	29.980 
03:10	22.7	22.7	22.7	84	18.6	2	5	248	0.00	29.981 
03:15	22.7	22.7	22.7	84	18.6	3	5	270	0.00	29.981 
03:20	22.7	22.7	22.7	84	18.6	2	4	270	0.00	29.981 
03:25	22.7	22.7	22.7	83	18.3	2	7	270	0.00	29.981 
03:30	22.5	22.5	22.5	83	18.1	2	5	270	0.00	29.981 
03:35	22.4	22.4	22.4	83	18.0	2	7	248	0.00	29.981 
03:40	22.2	22.2	22.2	83	17.8	2	6	270	0.00	29.981 
03:45	22.2	22.2	22.2	83	17.8	2	4	248	0.00	29.979 
03:50	22.1	22.1	22.1	83	17.7	2	5	248	0.00	29.979 
03:55	22.2	22.2	22.2	83	17.8	2	4	248	0.00	29.978 
04:00	22.2	22.2	22.2	83	17.8	2	5	248	0.00	29.976 
04:05	22.2	22.2	22.2	83	17.8	2	5	270	0.00	29.978 
04:10	22.4	22.4	22.4	83	18.0	2	5	270	0.00	29.978 
04:15	22.7	22.7	22.7	83	18.3	3	6	270	0.00	29.979 
04:20	22.7	22.7	22.7	83	18.3	3	7	270	0.00	29.980 
04:25	22.9	22.9	22.9	82	18.2	3	6	270	0.00	29.979 
04:30	22.9	22.9	22.9	82	18.2	3	6	270	0.00	29.980 
04:35	22.9	22.9	22.9	82	18.2	2	7	270	0.00	29.980 
04:40	22.9	22.9	22.9	82	18.2	2	5	270	0.00	29.980 
04:45	22.9	22.9	22.9	82	18.2	3	4	248	0.00	29.978 
04:50	22.7	22.7	22.7	82	18.0	2	5	270	0.00	29.978 
04:55	22.5	22.5	22.5	82	17.9	3	6	270	0.00	29.975 
05:00	22.4	22.4	22.4	82	17.8	3	6	270	0.00	29.974 
05:05	22.4	22.4	22.4	82	17.8	2	6	270	0.00	29.973 
05:10	22.2	22.2	22.2	82	17.6	3	10	270	0.00	29.975 
05:15	22.2	22.2	22.2	82	17.6	3	5	270	0.00	29.974 
05:20	22.1	22.1	22.1	82	17.5	3	6	248	0.00	29.974 
05:25	21.9	21.9	21.9	82	17.3	3	7	270	0.00	29.979 
05:30	21.9	21.9	21.9	82	17.3	3	6	270	0.00	29.982 
05:35	21.8	21.8	21.8	82	17.2	3	6	270	0.00	29.982 
05:40	21.6	21.6	21.6	82	17.0	3	8	270	0.00	29.982 
05:45	21.4	21.4	21.4	82	16.8	2	6	270	0.00	29.983 
05:50	21.1	21.1	21.1	81	16.2	3	9	270	0.00	29.984 
05:55	21.0	21.0	21.0	81	16.1	3	6	270	0.00	29.985 
06:00	20.8	20.8	20.8	81	15.9	3	6	270	0.00	29.985 
06:05	20.6	20.6	20.6	81	15.7	3	9	270	0.00	29.988 
06:10	20.6	20.6	20.6	81	15.7	2	5	270	0.00	29.988 
06:15	20.6	20.6	20.6	81	15.7	3	10	270	0.00	29.988 
06:20	20.5	20.5	20.5	81	15.6	2	6	248	0.00	29.991 
06:25	20.5	20.5	20.5	81	15.6	2	6	270	0.00	29.993 
06:30	20.3	20.3	20.3	81	15.4	2	4	270	0.00	29.997 
06:35	20.3	20.3	20.3	81	15.4	2	6	270	0.00	30.000 
06:40	20.2	20.2	20.2	82	15.6	2	5	270	0.00	30.000 
06:45	20.2	20.2	20.2	82	15.6	2	5	270	0.00	30.000 
06:50	20.2	20.2	20.2	82	15.6	2	4	270	0.00	30.001 
06:55	20.2	20.2	20.2	81	15.3	2	6	270	0.00	30.001 
07:00	20.2	20.2	20.2	81	15.3	3	5	270	0.00	30.002 
07:05	20.2	20.2	20.2	81	15.3	3	5	270	0.00	30.003 
07:10	20.2	20.2	20.2	81	15.3	3	7	270	0.00	30.005 
07:15	20.2	20.2	20.2	81	15.3	2	4	270	0.00	30.008 
07:20	20.0	20.0	20.0	81	15.1	3	6	270	0.00	30.010 
07:25	20.0	20.0	20.0	81	15.1	3	6	270	0.00	30.013 
07:30	20.0	20.0	20.0	81	15.1	3	6	270	0.00	30.018 
07:35	20.0	20.0	20.0	82	15.4	3	10	270	0.00	30.022 
07:40	19.9	19.9	19.9	81	15.0	3	10	270	0.00	30.023 
07:45	19.9	19.9	19.9	81	15.0	3	7	270	0.00	30.024 
07:50	19.7	19.7	19.7	82	15.1	3	11	270	0.00	30.023 
07:55	19.7	19.7	19.7	82	15.1	3	7	270	0.00	30.023 
08:00	19.7	19.7	19.7	82	15.1	3	12	270	0.00	30.022 
08:05	19.7	19.7	19.7	82	15.1	3	11	270	0.00	30.025 
08:10	19.7	19.7	19.7	82	15.1	3	9	270	0.00	30.028 
08:15	19.7	19.7	19.7	82	15.1	3	7	248	0.00	30.033 
08:20	19.7	19.7	19.7	82	15.1	3	14	248	0.00	30.032 
08:25	19.7	13.9	19.7	82	15.1	4	10	270	0.00	30.033 
08:30	19.7	19.7	19.7	82	15.1	3	13	270	0.00	30.035 
08:35	19.5	19.5	19.5	82	14.9	3	12	270	0.00	30.034 
08:40	19.5	19.5	19.5	82	14.9	2	11	248	0.00	30.036 
08:45	19.4	19.4	19.4	82	14.8	3	13	270	0.00	30.039 
08:50	19.2	13.3	19.2	82	14.6	4	11	270	0.00	30.039 
08:55	19.2	19.2	19.2	82	14.6	3	7	270	0.00	30.044 
09:00	19.2	19.2	19.2	82	14.6	2	5	248	0.00	30.050 
09:05	19.1	19.1	19.1	82	14.5	3	6	270	0.00	30.052 
09:10	19.2	19.2	19.2	82	14.6	2	5	270	0.00	30.051 
09:15	19.2	19.2	19.2	82	14.6	3	6	270	0.00	30.053 
09:20	19.2	19.2	19.2	82	14.6	3	10	270	0.00	30.053 
09:25	19.2	19.2	19.2	82	14.6	2	4	270	0.00	30.055 
09:30	19.1	13.2	19.1	82	14.5	4	10	270	0.00	30.056 
09:35	19.1	19.1	19.1	82	14.5	3	7	270	0.00	30.057 
09:40	19.1	19.1	19.1	82	14.5	3	7	270	0.00	30.065 
09:45	18.9	12.9	18.9	81	14.1	4	13	270	0.00	30.067 
09:50	18.8	12.8	18.8	81	14.0	4	10	270	0.00	30.069 
09:55	18.9	18.9	18.9	82	14.3	2	6	270	0.00	30.070 
10:00	18.9	12.9	18.9	82	14.3	4	11	270	0.00	30.071 
10:05	18.8	18.8	18.8	81	14.0	3	10	270	0.00	30.072 
10:10	18.9	12.9	18.9	83	14.6	4	10	270	0.00	30.075 
10:15	18.9	18.9	18.9	81	14.1	3	10	270	0.00	30.080 
10:20	19.1	19.1	19.1	81	14.2	3	10	270	0.00	30.081 
10:25	19.1	19.1	19.1	81	14.2	3	9	270	0.00	30.083 
10:30	19.2	19.2	19.2	81	14.3	3	10	270	0.00	30.084 
10:35	19.2	13.3	19.2	81	14.3	4	11	270	0.00	30.085 
10:40	19.4	19.4	19.4	81	14.5	2	10	270	0.00	30.089 
10:45	19.4	19.4	19.4	81	14.5	3	7	270	0.00	30.089 
10:50	19.5	19.5	19.5	81	14.6	3	9	270	0.00	30.091 
10:55	19.7	19.7	19.7	81	14.8	2	7	248	0.00	30.093 
11:00	19.5	13.6	19.5	81	14.6	4	10	248	0.00	30.095 
11:05	19.7	19.7	19.7	81	14.8	2	6	270	0.00	30.097 
11:10	19.7	19.7	19.7	81	14.8	2	5	270	0.00	30.096 
11:15	19.7	19.7	19.7	81	14.8	3	10	248	0.00	30.096 
11:20	19.9	19.9	19.9	81	15.0	3	7	270	0.00	30.097 
11:25	19.9	19.9	19.9	81	15.0	3	6	270	0.00	30.098 
11:30	20.0	20.0	20.0	81	15.1	2	7	248	0.00	30.097 
11:35	19.9	14.1	19.9	80	14.7	4	12	248	0.00	30.098 
11:40	19.9	19.9	19.9	80	14.7	3	10	270	0.00	30.096 
11:45	20.0	14.2	20.0	80	14.8	4	9	270	0.00	30.090 
11:50	20.2	20.2	20.2	80	15.0	3	9	270	0.00	30.092 
11:55	20.5	20.5	20.5	80	15.3	3	7	270	0.00	30.090 
12:00	20.6	20.6	20.6	80	15.4	2	9	270	0.00	30.094 
12:05	20.8	20.8	20.8	80	15.6	2	4	270	0.00	30.094 
12:10	21.0	21.0	21.0	80	15.8	3	5	270	0.00	30.094 
12:15	21.1	21.1	21.1	80	15.9	2	5	248	0.00	30.093 
12:20	21.3	21.3	21.3	79	15.8	2	6	270	0.00	30.093 
12:25	21.1	15.5	21.1	78	15.3	4	12	270	0.00	30.094 
12:30	21.1	21.1	21.1	79	15.6	3	6	270	0.00	30.091 
12:35	21.0	21.0	21.0	78	15.2	3	7	270	0.00	30.092 
12:40	21.1	21.1	21.1	78	15.3	3	5	270	0.00	30.092 
12:45	21.0	21.0	21.0	78	15.2	3	8	270	0.00	30.092 
12:50	21.1	21.1	21.1	79	15.6	2	9	270	0.00	30.087 
12:55	21.3	21.3	21.3	78	15.5	2	4	270	0.00	30.084 
13:00	21.8	21.8	21.8	79	16.3	2	4	270	0.00	30.084 
13:05	21.6	21.6	21.6	77	15.5	3	7	270	0.00	30.081 
13:10	21.4	21.4	21.4	77	15.3	3	5	270	0.00	30.083 
13:15	21.6	21.6	21.6	78	15.8	2	8	248	0.00	30.081 
13:20	21.9	21.9	21.9	78	16.1	2	6	270	0.00	30.080 
13:25	21.9	21.9	21.9	77	15.8	3	7	270	0.00	30.080 
13:30	22.1	22.1	22.1	78	16.3	3	6	270	0.00	30.078 
13:35	22.2	22.2	22.2	78	16.4	2	5	270	0.00	30.078 
13:40	22.2	22.2	22.2	77	16.1	2	4	248	0.00	30.078 
13:45	22.2	22.2	22.2	78	16.4	2	7	248	0.00	30.079 
13:50	22.2	22.2	22.2	78	16.4	2	4	270	0.00	30.079 
13:55	22.4	22.4	22.4	78	16.6	2	4	270	0.00	30.079 
14:00	22.2	22.2	22.2	78	16.4	3	5	270	0.00	30.079 
14:05	22.2	22.2	22.2	78	16.4	1	5	248	0.00	30.079 
14:10	22.5	22.5	22.5	78	16.7	2	7	248	0.00	30.080 
14:15	22.7	22.7	22.7	79	17.2	1	6	270	0.00	30.078 
14:20	22.7	22.7	22.7	78	16.9	2	7	248	0.00	30.079 
14:25	22.7	22.7	22.7	78	16.9	2	6	248	0.00	30.080 
14:30	22.7	22.7	22.7	78	16.9	2	6	248	0.00	30.083 
14:35	22.9	22.9	22.9	79	17.4	1	5	248	0.00	30.084 
14:40	22.9	22.9	22.9	78	17.1	2	6	270	0.00	30.088 
14:45	22.9	22.9	22.9	79	17.4	1	5	270	0.00	30.091 
14:50	23.0	23.0	23.0	79	17.5	2	5	248	0.00	30.091 
14:55	23.3	23.3	23.3	79	17.8	1	3	270	0.00	30.092 
15:00	23.3	23.3	23.3	78	17.5	2	7	248	0.00	30.092 
15:05	23.5	23.5	23.5	78	17.7	2	7	270	0.00	30.091 
15:10	23.6	23.6	23.6	78	17.8	2	6	248	0.00	30.092 
15:15	23.8	23.8	23.8	78	18.0	2	5	270	0.00	30.092 
15:20	23.9	23.9	23.9	78	18.1	2	4	248	0.00	30.091 
15:25	24.2	24.2	24.2	78	18.3	2	5	270	0.00	30.090 
15:30	24.4	24.4	24.4	77	18.2	2	5	248	0.00	30.092 
15:35	24.7	24.7	24.7	77	18.5	2	6	248	0.00	30.093 
15:40	24.8	24.8	24.8	77	18.6	1	4	225	0.00	30.094 
15:45	24.8	24.8	24.8	76	18.3	1	3	270	0.00	30.095 
15:50	25.0	25.0	25.0	76	18.5	2	5	270	0.00	30.096 
15:55	25.3	25.3	25.3	76	18.8	1	4	248	0.00	30.097 
16:00	25.4	25.4	25.4	75	18.6	2	5	248	0.00	30.098 
16:05	25.4	25.4	25.4	75	18.6	1	3	248	0.00	30.100 
16:10	25.7	25.7	25.7	75	18.9	1	5	248	0.00	30.102 
16:15	25.7	25.7	25.7	74	18.6	1	4	248	0.00	30.104 
16:20	25.8	25.8	25.8	74	18.7	0	2	248	0.00	30.105 
16:25	25.7	25.7	25.7	74	18.6	2	7	248	0.00	30.106 
16:30	25.4	25.4	25.4	74	18.3	2	5	248	0.00	30.107 
16:35	25.3	25.3	25.3	74	18.2	2	9	248	0.00	30.110 
16:40	25.1	25.1	25.1	74	18.0	1	4	248	0.00	30.112 
16:45	24.8	24.8	24.8	75	18.0	2	5	270	0.00	30.116 
16:50	24.8	24.8	24.8	75	18.0	2	7	270	0.00	30.118 
16:55	24.7	24.7	24.7	75	17.9	2	4	248	0.00	30.120 
17:00	24.7	24.7	24.7	75	17.9	2	5	248	0.00	30.123 
17:05	24.7	24.7	24.7	75	17.9	2	5	248	0.00	30.124 
17:10	24.7	24.7	24.7	76	18.2	2	4	248	0.00	30.125 
17:15	24.5	24.5	24.5	76	18.0	1	4	248	0.00	30.125 
17:20	24.4	24.4	24.4	76	17.9	1	4	248	0.00	30.125 
17:25	24.1	24.1	24.1	76	17.7	2	7	248	0.00	30.122 
17:30	23.8	23.8	23.8	77	17.7	1	5	248	0.00	30.124 
17:35	23.6	23.6	23.6	77	17.5	2	6	248	0.00	30.126 
17:40	23.5	23.5	23.5	77	17.4	1	4	248	0.00	30.127 
17:45	23.3	23.3	23.3	77	17.2	1	4	248	0.00	30.128 
17:50	23.2	23.2	23.2	78	17.4	1	4	248	0.00	30.129 
17:55	23.0	23.0	23.0	78	17.2	1	6	248	0.00	30.131 
18:00	22.9	22.9	22.9	79	17.4	1	6	248	0.00	30.133 
18:05	22.9	22.9	22.9	79	17.4	1	4	248	0.00	30.140 
18:10	22.7	22.7	22.7	79	17.2	1	2	270	0.00	30.143 
18:15	22.5	22.5	22.5	80	17.3	1	4	248	0.00	30.145 
18:20	22.4	22.4	22.4	80	17.2	0	3	248	0.00	30.145 
18:25	22.2	22.2	22.2	80	17.0	0	2	248	0.00	30.145 
18:30	22.2	22.2	22.2	81	17.3	0	4	248	0.00	30.148 
18:35	22.2	22.2	22.2	81	17.3	1	3	225	0.00	30.149 
18:40	22.2	22.2	22.2	81	17.3	1	3	248	0.00	30.155 
18:45	22.1	22.1	22.1	81	17.2	1	4	248	0.00	30.159 
18:50	22.1	22.1	22.1	81	17.2	1	3	248	0.00	30.162 
18:55	22.1	22.1	22.1	81	17.2	1	5	248	0.00	30.161 
19:00	22.1	22.1	22.1	81	17.2	1	4	248	0.00	30.161 
19:05	22.1	22.1	22.1	81	17.2	1	3	248	0.00	30.163 
19:10	21.9	21.9	21.9	82	17.3	1	3	248	0.00	30.163 
19:15	21.9	21.9	21.9	82	17.3	1	3	248	0.00	30.166 
19:20	21.8	21.8	21.8	82	17.2	1	3	248	0.00	30.170 
19:25	21.8	21.8	21.8	82	17.2	0	2	248	0.00	30.173 
19:30	21.6	21.6	21.6	82	17.0	1	4	248	0.00	30.176 
19:35	21.6	21.6	21.6	82	17.0	0	1	225	0.00	30.177 
19:40	21.4	21.4	21.4	83	17.1	1	4	248	0.00	30.179 
19:45	21.3	21.3	21.3	83	17.0	0	1	225	0.00	30.180 
19:50	21.1	21.1	21.1	83	16.8	0	1	225	0.00	30.183 
19:55	21.1	21.1	21.1	83	16.8	0	2	225	0.00	30.187 
20:00	21.0	21.0	21.0	83	16.7	0	1	225	0.00	30.187 
20:05	20.8	20.8	20.8	83	16.5	0	0	---	0.00	30.185 
20:10	20.6	20.6	20.6	83	16.3	0	0	---	0.00	30.185 
20:15	20.5	20.5	20.5	84	16.4	0	1	225	0.00	30.186 
20:20	20.3	20.3	20.3	84	16.3	0	1	225	0.00	30.188 
20:25	20.2	20.2	20.2	84	16.2	0	1	225	0.00	30.189 
20:30	20.2	20.2	20.2	84	16.2	0	1	225	0.00	30.186 
20:35	20.0	20.0	20.0	84	16.0	0	0	---	0.00	30.186 
20:40	19.7	19.7	19.7	84	15.7	0	0	---	0.00	30.186 
20:45	19.5	19.5	19.5	85	15.7	0	0	---	0.00	30.187 
20:50	19.2	19.2	19.2	85	15.4	0	0	---	0.00	30.188 
20:55	19.1	19.1	19.1	85	15.3	0	0	---	0.00	30.183 
21:00	18.9	18.9	18.9	86	15.4	0	0	---	0.00	30.183 
21:05	18.6	18.6	18.6	86	15.1	0	0	---	0.00	30.184 
21:10	18.4	18.4	18.4	86	14.9	0	0	---	0.00	30.188 
21:15	18.1	18.1	18.1	86	14.6	0	0	---	0.00	30.192 
21:20	17.8	17.8	17.8	87	14.6	0	0	---	0.00	30.196 
21:25	17.7	17.7	17.7	87	14.5	0	0	---	0.00	30.196 
21:30	17.3	17.3	17.3	87	14.1	0	0	---	0.00	30.196 
21:35	17.2	17.2	17.2	87	14.0	0	0	---	0.00	30.198 
21:40	17.0	17.0	17.0	87	13.8	0	0	---	0.00	30.199 
21:45	16.9	16.9	16.9	88	14.0	0	0	---	0.00	30.199 
21:50	16.9	16.9	16.9	88	14.0	0	0	---	0.00	30.200 
21:55	16.9	16.9	16.9	88	14.0	0	0	---	0.00	30.200 
22:00	17.0	17.0	17.0	88	14.1	0	0	---	0.00	30.204 
22:05	17.0	17.0	17.0	88	14.1	0	0	---	0.00	30.204 
22:10	16.9	16.9	16.9	88	14.0	0	0	---	0.00	30.209 
22:15	16.7	16.7	16.7	88	13.8	0	0	---	0.00	30.213 
22:20	16.5	16.5	16.5	88	13.6	0	0	---	0.00	30.215 
22:25	16.7	16.7	16.7	89	14.0	0	0	---	0.00	30.216 
22:30	16.9	16.9	16.9	89	14.2	0	0	---	0.00	30.216 
22:35	16.9	16.9	16.9	89	14.2	0	0	---	0.00	30.216 
22:40	16.7	16.7	16.7	89	14.0	0	0	---	0.00	30.215 
22:45	16.5	16.5	16.5	89	13.8	0	0	---	0.00	30.214 
22:50	16.5	16.5	16.5	89	13.8	0	0	---	0.00	30.214 
22:55	16.4	16.4	16.4	89	13.7	0	0	---	0.00	30.213 
23:00	16.2	16.2	16.2	89	13.5	0	0	---	0.00	30.214 
23:05	16.1	16.1	16.1	89	13.4	0	0	---	0.00	30.216 
23:10	15.9	15.9	15.9	89	13.2	0	0	---	0.00	30.215 
23:15	15.7	15.7	15.7	88	12.8	0	0	---	0.00	30.216 
23:20	15.6	15.6	15.6	88	12.7	0	0	---	0.00	30.215 
23:25	15.4	15.4	15.4	88	12.5	0	0	---	0.00	30.215 
23:30	15.2	15.2	15.2	88	12.3	0	0	---	0.00	30.216 
23:35	15.1	15.1	15.1	88	12.2	0	0	---	0.00	30.218 
23:40	14.8	14.8	14.8	88	11.9	0	0	---	0.00	30.218 
23:45	14.6	14.6	14.6	88	11.7	0	0	---	0.00	30.217 
23:50	14.3	14.3	14.3	88	11.4	0	0	---	0.00	30.218 
23:55	14.1	14.1	14.1	88	11.2	0	0	---	0.00	30.219 

CoCoRaHS
IN-AL-39
A2 Web Hosting
Creative Commons License
GoDaddy
Look for:

loaded 2017-12-11 14:21:55 • last modified 2010-11-18 10:43:29
Privacy PolicyDisclaimer
• wx.awcolley.com is powered by PmWiki v.2002016 •
• all content (unless otherwise noted) © 2017 A W Colley